Terminal Aerodrome Forecast
Issued by NWS

Home | Current Version | Previous Version | Text Only | Print | Product List | Glossary On
Versions: 1 2 3 4 5 6 7 8 9 10 11 12 13 14 15 16 17 18 19 20 21 22 23 24 25 26
000
FTUS41 KCTP 101753 RRA
TAFJST
TAF
KJST 101753Z 1018/1118 26012G20KT 4SM -SHSN OVC022
      TEMPO 1018/1020 1SM -SHSN OVC015
     FM102000 27013G20KT P6SM OVC050
     FM110700 23006KT 1SM -SN BR OVC015
     FM111200 17004KT 1/2SM SN FG OVC003=

USA.gov is the U.S. government's official web portal to all federal, state and local government web resources and services.